createdAt,value
2023-04-03T00:03:23.355Z,100.00
2023-04-03T00:10:33.978Z,100.00
2023-04-03T00:13:15.768Z,100.00
2023-04-03T00:24:41.531Z,100.00
2023-04-03T00:32:09.481Z,100.00
2023-04-03T00:35:32.108Z,100.00
2023-04-03T00:42:29.274Z,100.00
2023-04-03T00:45:29.655Z,100.00
2023-04-03T01:08:50.808Z,100.00
2023-04-03T01:15:28.823Z,100.00
2023-04-03T01:34:32.898Z,100.00
2023-04-03T01:38:05.524Z,100.00
2023-04-03T01:44:11.175Z,100.00
2023-04-03T01:46:52.957Z,100.00
2023-04-03T01:49:36.153Z,100.00
2023-04-03T01:52:09.347Z,100.00
2023-04-03T01:54:36.905Z,99.75
2023-04-03T01:57:04.587Z,98.20
2023-04-03T01:59:32.785Z,98.05
2023-04-03T02:02:00.910Z,100.00
2023-04-03T02:04:28.594Z,100.00
2023-04-03T02:06:56.260Z,100.00
2023-04-03T02:09:24.950Z,100.00
2023-04-03T02:11:54.416Z,100.00
2023-04-03T02:14:22.968Z,100.00
2023-04-03T02:16:51.119Z,100.00
2023-04-03T02:19:18.640Z,100.00
2023-04-03T02:21:46.236Z,100.00
2023-04-03T02:24:13.772Z,100.00
2023-04-03T02:26:42.593Z,100.00
2023-04-03T02:29:10.234Z,100.00
2023-04-03T02:31:39.271Z,100.00
2023-04-03T02:34:07.127Z,98.81
2023-04-03T02:36:37.772Z,98.63
2023-04-03T02:39:08.662Z,100.00
2023-04-03T02:41:36.686Z,100.00
2023-04-03T02:44:11.451Z,99.94
2023-04-03T02:46:39.102Z,99.86
2023-04-03T02:49:07.740Z,98.90
2023-04-03T02:51:35.381Z,97.88
2023-04-03T02:54:03.208Z,97.55
2023-04-03T02:56:34.281Z,98.64
2023-04-03T02:59:07.282Z,99.37
2023-04-03T03:01:37.133Z,97.36
2023-04-03T03:04:05.191Z,98.86
2023-04-03T03:06:33.919Z,100.00
2023-04-03T03:09:01.484Z,100.00
2023-04-03T03:11:30.619Z,96.72
2023-04-03T03:13:58.807Z,97.85
2023-04-03T03:16:27.126Z,97.88
2023-04-03T03:18:54.866Z,98.12
2023-04-03T03:21:22.746Z,99.66
2023-04-03T03:23:50.548Z,99.90
2023-04-03T03:26:18.131Z,98.17
2023-04-03T03:28:46.798Z,97.65
2023-04-03T03:31:14.927Z,96.28
2023-04-03T03:33:42.657Z,94.33
2023-04-03T03:36:10.753Z,97.19
2023-04-03T03:38:39.320Z,96.89
2023-04-03T03:41:07.472Z,97.01
2023-04-03T03:43:36.357Z,98.53
2023-04-03T03:46:06.124Z,96.98
2023-04-03T03:48:33.805Z,97.54
2023-04-03T03:51:03.651Z,97.86
2023-04-03T03:53:35.661Z,97.79
2023-04-03T03:56:07.787Z,98.03
2023-04-03T03:58:37.896Z,98.85
2023-04-03T04:01:09.365Z,100.00
2023-04-03T04:03:43.168Z,100.00
2023-04-03T04:06:13.963Z,100.00
2023-04-03T04:08:41.799Z,100.00
2023-04-03T04:11:11.641Z,100.00
2023-04-03T04:13:41.744Z,100.00
2023-04-03T04:16:11.305Z,100.00
2023-04-03T04:18:39.812Z,100.00
2023-04-03T04:21:07.436Z,100.00
2023-04-03T04:23:35.233Z,100.00
2023-04-03T04:26:02.873Z,100.00
2023-04-03T04:28:34.619Z,100.00
2023-04-03T04:31:04.241Z,100.00
2023-04-03T04:33:32.961Z,100.00
2023-04-03T04:36:04.743Z,100.00
2023-04-03T04:38:33.289Z,100.00
2023-04-03T04:41:01.230Z,100.00
2023-04-03T04:43:29.315Z,100.00
2023-04-03T04:46:10.947Z,100.00
2023-04-03T04:48:49.453Z,99.47
2023-04-03T04:51:19.424Z,100.00
2023-04-03T04:53:47.466Z,100.00
2023-04-03T04:56:17.415Z,100.00
2023-04-03T04:58:45.803Z,100.00
2023-04-03T05:01:17.025Z,100.00
2023-04-03T05:04:05.534Z,100.00
2023-04-03T05:06:42.057Z,100.00
2023-04-03T05:09:23.628Z,100.00
2023-04-03T05:11:52.989Z,100.00
2023-04-03T05:14:31.260Z,100.00
2023-04-03T05:17:06.883Z,100.00
2023-04-03T05:19:54.797Z,100.00
2023-04-03T05:22:23.576Z,100.00
2023-04-03T05:24:53.792Z,100.00
2023-04-03T05:27:24.573Z,100.00
2023-04-03T05:29:56.113Z,100.00
2023-04-03T05:32:26.240Z,100.00
2023-04-03T05:35:02.734Z,99.76
2023-04-03T05:37:41.560Z,100.00
2023-04-03T05:40:10.333Z,100.00
2023-04-03T05:42:41.617Z,98.17
2023-04-03T05:45:09.549Z,99.75
2023-04-03T05:47:37.495Z,96.46
2023-04-03T05:50:07.827Z,96.82
2023-04-03T05:53:20.498Z,97.44
2023-04-03T06:02:07.973Z,94.03
2023-04-03T06:08:21.105Z,93.60
2023-04-03T06:10:48.899Z,92.79
2023-04-03T06:13:18.539Z,93.83
2023-04-03T06:15:46.089Z,92.72
2023-04-03T06:18:13.487Z,92.21
2023-04-03T06:20:41.734Z,91.30
2023-04-03T06:23:09.413Z,92.19
2023-04-03T06:25:36.880Z,92.67
2023-04-03T06:28:10.374Z,92.70
2023-04-03T06:30:43.068Z,92.89
2023-04-03T06:33:10.765Z,92.35
2023-04-03T07:21:55.367Z,63.21
2023-04-03T07:24:58.225Z,61.83
2023-04-03T07:28:39.927Z,65.26
2023-04-03T07:31:13.341Z,66.62
2023-04-03T07:34:36.935Z,64.93
2023-04-03T07:38:13.020Z,64.32
2023-04-03T12:35:36.634Z,54.54
2023-04-03T12:38:36.519Z,53.88
2023-04-03T12:42:18.933Z,52.67
2023-04-03T16:43:39.326Z,48.85
2023-04-03T16:46:10.085Z,48.81
2023-04-03T16:51:31.303Z,49.19
2023-04-03T16:54:08.157Z,48.56
2023-04-03T16:56:35.465Z,48.56
2023-04-03T16:59:02.848Z,48.80
2023-04-03T17:01:30.598Z,49.61
2023-04-03T17:03:57.979Z,49.71
2023-04-03T17:06:25.500Z,49.81
2023-04-03T17:08:55.462Z,49.91
2023-04-03T17:11:29.021Z,50.17
2023-04-03T17:13:56.372Z,49.88
2023-04-03T17:16:24.434Z,50.14
2023-04-03T17:18:52.726Z,50.51
2023-04-03T17:25:44.473Z,48.85
2023-04-03T17:28:11.869Z,48.82
2023-04-03T17:30:39.187Z,48.38
2023-04-03T17:33:06.744Z,48.58
2023-04-03T17:35:34.273Z,48.33
2023-04-03T17:47:04.767Z,48.45
2023-04-03T17:49:57.249Z,48.88
2023-04-03T17:52:31.954Z,48.87
2023-04-03T17:55:05.035Z,48.83
2023-04-03T17:57:32.416Z,49.37
2023-04-03T18:12:31.620Z,48.67
2023-04-03T18:15:00.380Z,49.53
2023-04-03T18:17:35.843Z,49.05
2023-04-03T18:20:06.457Z,48.62
2023-04-03T18:27:03.840Z,48.83
2023-04-03T18:29:32.881Z,49.23
2023-04-03T18:36:18.965Z,47.73
2023-04-03T18:47:43.225Z,48.66
2023-04-03T18:50:10.861Z,49.32
2023-04-03T18:52:38.279Z,48.62
2023-04-03T18:59:27.592Z,48.02
2023-04-03T19:01:55.867Z,47.73
2023-04-03T19:04:23.442Z,47.63
2023-04-03T19:07:41.955Z,50.58
2023-04-03T19:14:27.424Z,54.79
2023-04-03T19:21:15.900Z,57.57
2023-04-03T19:23:45.027Z,58.10
2023-04-03T19:26:14.917Z,59.05
2023-04-03T19:28:42.642Z,61.26
2023-04-03T19:31:14.092Z,61.64
2023-04-03T19:33:42.255Z,62.36
2023-04-03T19:36:12.424Z,63.31
2023-04-03T19:47:31.420Z,54.43
2023-04-03T19:49:59.642Z,55.58
2023-04-03T19:52:27.112Z,51.37
2023-04-03T19:59:19.547Z,57.68
2023-04-03T20:02:01.657Z,57.54
2023-04-03T20:08:55.927Z,57.86
2023-04-03T20:16:04.354Z,58.24
2023-04-03T20:19:03.934Z,59.60
2023-04-03T20:26:06.508Z,59.59
2023-04-03T20:28:47.871Z,59.66
2023-04-03T20:31:20.740Z,59.83
2023-04-03T20:33:53.460Z,59.58
2023-04-03T20:36:31.335Z,59.91
2023-04-03T20:47:45.683Z,56.87
2023-04-03T20:55:22.366Z,57.43
2023-04-03T20:58:13.753Z,56.47
2023-04-03T21:09:27.341Z,57.37
2023-04-03T21:25:09.355Z,58.44
2023-04-03T21:32:54.669Z,59.01
2023-04-03T21:40:08.716Z,58.46
2023-04-03T21:42:41.734Z,60.38
2023-04-03T21:49:33.079Z,60.65
2023-04-03T21:52:03.063Z,60.30
2023-04-03T21:54:33.724Z,60.28
2023-04-03T22:01:29.635Z,60.91
2023-04-03T22:03:59.622Z,60.55
2023-04-03T22:06:26.980Z,61.15
2023-04-03T22:08:57.144Z,60.99
2023-04-03T22:11:32.980Z,60.30
2023-04-03T22:18:32.660Z,59.27
2023-04-03T22:21:00.129Z,58.08
2023-04-03T22:23:29.825Z,58.71
2023-04-03T22:26:21.637Z,58.18
2023-04-03T22:28:48.860Z,57.65
2023-04-03T22:35:48.268Z,57.45
2023-04-03T22:38:16.042Z,58.14
2023-04-03T22:44:27.564Z,56.75
2023-04-03T22:51:21.295Z,58.97
2023-04-03T22:58:15.844Z,58.57
2023-04-03T23:00:43.470Z,58.82
2023-04-03T23:03:13.053Z,58.17
2023-04-03T23:05:40.740Z,58.68
2023-04-03T23:08:08.006Z,59.86
2023-04-03T23:10:38.073Z,59.36
2023-04-03T23:13:05.699Z,60.16
2023-04-03T23:24:39.293Z,60.77
2023-04-03T23:31:26.104Z,62.10
2023-04-03T23:33:56.746Z,62.51
2023-04-03T23:36:26.623Z,61.93
2023-04-03T23:42:09.222Z,61.90
2023-04-03T23:44:43.744Z,61.08
2023-04-03T23:47:16.687Z,61.21
2023-04-03T23:54:05.842Z,61.19
2023-04-03T23:56:36.061Z,60.41
2023-04-03T23:59:16.518Z,59.97
